createdAt,value
2019-03-30T00:00:57.706Z,42.79
2019-03-30T00:02:07.424Z,42.54
2019-03-30T00:03:13.962Z,43.10
2019-03-30T00:04:19.752Z,42.88
2019-03-30T00:05:26.655Z,42.70
2019-03-30T00:06:32.453Z,43.08
2019-03-30T00:07:38.461Z,43.05
2019-03-30T00:08:44.962Z,43.26
2019-03-30T00:09:51.256Z,43.25
2019-03-30T00:10:57.009Z,43.05
2019-03-30T00:12:03.503Z,43.11
2019-03-30T00:13:09.915Z,42.95
2019-03-30T00:14:17.513Z,43.03
2019-03-30T00:15:24.248Z,43.24
2019-03-30T00:16:30.490Z,42.86
2019-03-30T00:17:36.826Z,43.79
2019-03-30T00:18:42.890Z,43.36
2019-03-30T00:19:48.643Z,42.97
2019-03-30T00:20:54.689Z,43.02
2019-03-30T00:22:01.386Z,43.21
2019-03-30T00:23:08.255Z,44.08
2019-03-30T00:24:14.642Z,43.50
2019-03-30T00:25:20.925Z,43.83
2019-03-30T00:26:27.246Z,43.57
2019-03-30T00:27:34.169Z,43.01
2019-03-30T00:28:40.038Z,43.51
2019-03-30T00:29:46.352Z,43.52
2019-03-30T00:30:53.150Z,43.33
2019-03-30T00:32:00.322Z,43.35
2019-03-30T00:33:06.820Z,43.71
2019-03-30T00:34:12.315Z,43.62
2019-03-30T00:35:18.017Z,44.22
2019-03-30T00:36:24.267Z,44.17
2019-03-30T00:37:31.190Z,43.97
2019-03-30T00:38:37.943Z,43.24
2019-03-30T00:39:43.699Z,43.52
2019-03-30T00:40:49.811Z,43.94
2019-03-30T00:41:56.646Z,43.91
2019-03-30T00:43:02.929Z,43.92
2019-03-30T00:44:08.656Z,44.17
2019-03-30T00:45:14.397Z,43.85
2019-03-30T00:46:21.606Z,43.80
2019-03-30T00:47:28.284Z,43.99
2019-03-30T00:48:35.267Z,43.79
2019-03-30T00:49:48.959Z,43.71
2019-03-30T00:50:50.098Z,43.54
2019-03-30T00:51:57.711Z,43.89
2019-03-30T00:53:05.229Z,44.14
2019-03-30T00:54:12.934Z,43.93
2019-03-30T00:55:19.061Z,44.38
2019-03-30T00:56:25.452Z,44.50
2019-03-30T00:57:32.058Z,43.89
2019-03-30T00:58:37.878Z,43.38
2019-03-30T00:59:44.361Z,43.11
2019-03-30T01:00:50.234Z,43.22
2019-03-30T01:01:57.047Z,43.75
2019-03-30T01:03:02.928Z,44.01
2019-03-30T01:04:09.820Z,43.52
2019-03-30T01:05:16.051Z,43.53
2019-03-30T01:06:22.340Z,43.58
2019-03-30T01:07:28.440Z,44.00
2019-03-30T01:08:35.517Z,43.98
2019-03-30T01:09:42.160Z,43.42
2019-03-30T01:10:48.581Z,43.29
2019-03-30T01:11:55.198Z,44.05
2019-03-30T01:13:00.769Z,44.19
2019-03-30T01:14:06.394Z,43.85
2019-03-30T01:15:12.488Z,43.49
2019-03-30T01:16:18.653Z,43.64
2019-03-30T01:17:24.813Z,44.01
2019-03-30T01:18:32.291Z,44.04
2019-03-30T01:19:38.051Z,44.15
2019-03-30T01:20:45.474Z,44.00
2019-03-30T01:21:52.369Z,44.06
2019-03-30T01:22:58.901Z,44.61
2019-03-30T01:24:05.289Z,43.83
2019-03-30T01:25:12.008Z,44.19
2019-03-30T01:26:18.616Z,44.06
2019-03-30T01:27:24.970Z,44.43
2019-03-30T01:28:32.048Z,44.11
2019-03-30T01:29:38.856Z,44.07
2019-03-30T01:30:45.226Z,44.08
2019-03-30T01:31:51.937Z,44.55
2019-03-30T01:32:57.583Z,44.35
2019-03-30T01:34:04.860Z,44.13
2019-03-30T01:35:10.996Z,44.11
2019-03-30T01:36:16.601Z,44.29
2019-03-30T01:37:24.503Z,44.75
2019-03-30T01:38:32.172Z,44.53
2019-03-30T01:39:37.972Z,44.54
2019-03-30T01:40:44.794Z,44.70
2019-03-30T01:41:51.110Z,44.73
2019-03-30T01:42:56.975Z,44.60
2019-03-30T01:44:02.662Z,45.08
2019-03-30T01:45:09.346Z,45.45
2019-03-30T01:46:16.144Z,45.16
2019-03-30T01:47:22.499Z,45.26
2019-03-30T01:48:29.128Z,45.80
2019-03-30T01:49:35.120Z,45.64
2019-03-30T01:50:41.726Z,45.65
2019-03-30T01:51:49.563Z,45.42
2019-03-30T01:52:56.441Z,45.05
2019-03-30T01:54:03.263Z,45.00
2019-03-30T01:55:09.661Z,45.24
2019-03-30T01:56:16.883Z,45.89
2019-03-30T01:57:23.453Z,45.33
2019-03-30T01:58:29.461Z,45.15
2019-03-30T01:59:35.839Z,45.11
2019-03-30T02:00:42.135Z,45.33
2019-03-30T02:01:47.887Z,45.78
2019-03-30T02:02:54.191Z,45.73
2019-03-30T02:04:00.800Z,45.17
2019-03-30T02:05:07.059Z,45.35
2019-03-30T02:06:13.340Z,45.41
2019-03-30T02:07:19.414Z,45.35
2019-03-30T02:08:26.185Z,45.53
2019-03-30T02:09:32.119Z,46.03
2019-03-30T02:10:47.107Z,45.63
2019-03-30T02:11:52.870Z,45.74
2019-03-30T02:12:58.705Z,45.64
2019-03-30T02:14:05.181Z,45.67
2019-03-30T02:15:11.414Z,45.16
2019-03-30T02:16:18.556Z,45.13
2019-03-30T02:17:24.892Z,44.90
2019-03-30T02:18:31.492Z,44.94
2019-03-30T02:19:37.300Z,44.76
2019-03-30T02:20:44.578Z,45.09
2019-03-30T02:21:50.607Z,45.23
2019-03-30T02:22:58.062Z,45.51
2019-03-30T02:24:04.096Z,45.69
2019-03-30T02:25:10.837Z,45.53
2019-03-30T02:26:17.411Z,45.89
2019-03-30T02:27:23.258Z,45.76
2019-03-30T02:28:30.876Z,45.69
2019-03-30T02:29:37.134Z,45.07
2019-03-30T02:30:43.764Z,44.43
2019-03-30T02:31:49.792Z,44.47
2019-03-30T02:32:56.126Z,44.24
2019-03-30T02:34:03.026Z,44.79
2019-03-30T02:35:08.830Z,44.42
2019-03-30T02:36:16.299Z,44.64
2019-03-30T02:37:22.031Z,44.35
2019-03-30T02:38:28.106Z,44.45
2019-03-30T02:39:33.815Z,44.27
2019-03-30T02:40:41.194Z,44.82
2019-03-30T02:41:47.115Z,44.98
2019-03-30T02:42:53.870Z,45.61
2019-03-30T02:44:00.596Z,45.26
2019-03-30T02:45:06.441Z,45.50
2019-03-30T02:46:14.113Z,44.70
2019-03-30T02:47:20.720Z,44.80
2019-03-30T02:48:28.313Z,44.62
2019-03-30T02:49:35.133Z,45.73
2019-03-30T02:50:50.029Z,44.92
2019-03-30T02:51:49.556Z,45.42
2019-03-30T02:52:55.295Z,45.10
2019-03-30T02:54:01.870Z,45.01
2019-03-30T02:55:12.445Z,44.90
2019-03-30T02:56:16.047Z,45.59
2019-03-30T02:57:22.785Z,45.00
2019-03-30T02:58:28.959Z,44.80
2019-03-30T02:59:35.157Z,44.51
2019-03-30T03:00:42.110Z,44.78
2019-03-30T03:01:48.585Z,44.85
2019-03-30T03:02:55.966Z,45.64
2019-03-30T03:04:02.203Z,45.46
2019-03-30T03:05:08.672Z,45.78
2019-03-30T03:06:15.394Z,46.16
2019-03-30T03:07:21.646Z,46.16
2019-03-30T03:08:28.965Z,45.78
2019-03-30T03:09:35.324Z,46.08
2019-03-30T03:10:41.118Z,46.08
2019-03-30T03:11:48.312Z,46.33
2019-03-30T03:12:54.104Z,46.35
2019-03-30T03:14:00.082Z,46.02
2019-03-30T03:15:05.946Z,46.06
2019-03-30T03:16:11.767Z,46.31
2019-03-30T03:17:18.942Z,46.67
2019-03-30T03:18:24.777Z,46.01
2019-03-30T03:19:31.925Z,46.02
2019-03-30T03:20:38.835Z,46.12
2019-03-30T03:21:44.572Z,45.63
2019-03-30T03:22:51.990Z,45.76
2019-03-30T03:23:58.923Z,45.22
2019-03-30T03:25:05.597Z,45.83
2019-03-30T03:26:11.022Z,46.16
2019-03-30T03:27:18.437Z,45.86
2019-03-30T03:28:25.292Z,46.70
2019-03-30T03:29:32.582Z,46.74
2019-03-30T03:30:38.937Z,46.22
2019-03-30T03:31:45.278Z,46.65
2019-03-30T03:32:52.910Z,46.57
2019-03-30T03:33:58.483Z,46.70
2019-03-30T03:35:04.298Z,47.07
2019-03-30T03:36:11.135Z,47.05
2019-03-30T03:37:17.752Z,47.19
2019-03-30T03:38:24.492Z,47.00
2019-03-30T03:39:32.353Z,46.56
2019-03-30T03:40:39.302Z,46.97
2019-03-30T03:41:44.982Z,46.82
2019-03-30T03:42:52.757Z,46.70
2019-03-30T03:44:00.599Z,47.37
2019-03-30T03:45:07.284Z,47.50
2019-03-30T03:46:13.411Z,47.70
2019-03-30T03:47:20.604Z,47.36
2019-03-30T03:48:27.328Z,47.44
2019-03-30T03:49:33.435Z,47.82
2019-03-30T03:50:43.305Z,48.15
2019-03-30T03:51:49.296Z,47.51
2019-03-30T03:52:56.484Z,47.50
2019-03-30T03:54:02.633Z,47.30
2019-03-30T03:55:08.803Z,47.30
2019-03-30T03:56:17.490Z,47.08
2019-03-30T03:57:27.285Z,47.84
2019-03-30T03:58:35.517Z,46.92
2019-03-30T03:59:43.574Z,47.44
2019-03-30T04:00:51.115Z,47.26
2019-03-30T04:01:58.499Z,47.10
2019-03-30T04:03:05.245Z,46.70
2019-03-30T04:04:13.696Z,47.07
2019-03-30T04:05:21.510Z,47.35
2019-03-30T04:06:28.677Z,47.24
2019-03-30T04:07:37.314Z,47.11
2019-03-30T04:08:46.810Z,47.48
2019-03-30T04:09:56.598Z,46.85
2019-03-30T04:11:04.590Z,47.23
2019-03-30T04:12:11.929Z,47.88
2019-03-30T04:13:19.373Z,47.20
2019-03-30T04:14:27.278Z,47.09
2019-03-30T04:15:33.022Z,47.68
2019-03-30T04:16:40.394Z,47.73
2019-03-30T04:17:46.809Z,47.36
2019-03-30T04:18:52.821Z,47.75
2019-03-30T04:19:59.438Z,47.52
2019-03-30T04:21:05.471Z,47.87
2019-03-30T04:22:12.360Z,47.40
2019-03-30T04:23:18.194Z,47.88
2019-03-30T04:24:24.687Z,47.70
2019-03-30T04:25:30.995Z,47.80
2019-03-30T04:26:37.598Z,48.01
2019-03-30T04:27:44.416Z,48.08
2019-03-30T04:28:51.234Z,47.46
2019-03-30T04:29:58.415Z,47.43
2019-03-30T04:31:04.320Z,47.81
2019-03-30T04:32:10.896Z,48.04
2019-03-30T04:33:18.448Z,47.76
2019-03-30T04:34:24.725Z,47.90
2019-03-30T04:35:30.793Z,47.98
2019-03-30T04:36:37.251Z,49.02
2019-03-30T04:37:44.394Z,49.20
2019-03-30T04:38:52.195Z,49.08
2019-03-30T04:39:58.957Z,48.49
2019-03-30T04:41:04.978Z,48.54
2019-03-30T04:42:11.259Z,47.38
2019-03-30T04:43:18.065Z,47.41
2019-03-30T04:44:27.480Z,47.55
2019-03-30T04:45:32.918Z,47.36
2019-03-30T04:46:39.349Z,47.79
2019-03-30T04:47:45.372Z,47.62
2019-03-30T04:48:51.871Z,47.82
2019-03-30T04:49:58.830Z,48.08
2019-03-30T04:51:05.178Z,48.09
2019-03-30T04:52:12.483Z,48.44
2019-03-30T04:53:19.315Z,48.15
2019-03-30T04:54:25.622Z,48.12
2019-03-30T04:55:32.269Z,47.91
2019-03-30T04:56:38.812Z,47.94
2019-03-30T04:57:49.702Z,47.29
2019-03-30T04:58:54.996Z,47.74
2019-03-30T05:00:01.807Z,47.70
2019-03-30T05:01:08.643Z,47.62
2019-03-30T05:02:14.920Z,48.02
2019-03-30T05:03:22.483Z,47.42
2019-03-30T05:04:29.230Z,47.75
2019-03-30T05:05:35.258Z,47.63
2019-03-30T05:06:41.357Z,47.67
2019-03-30T05:07:47.983Z,48.36
2019-03-30T05:08:54.702Z,47.59
2019-03-30T05:10:00.614Z,48.69
2019-03-30T05:11:08.006Z,47.75
2019-03-30T05:12:14.769Z,46.83
2019-03-30T05:13:20.349Z,47.44
2019-03-30T05:14:26.701Z,47.28
2019-03-30T05:15:32.890Z,47.71
2019-03-30T05:16:40.672Z,47.84
2019-03-30T05:17:48.282Z,47.50
2019-03-30T05:18:54.000Z,47.13
2019-03-30T05:20:00.906Z,47.25
2019-03-30T05:21:08.473Z,47.12
2019-03-30T05:22:16.597Z,46.94
2019-03-30T05:23:22.175Z,47.37
2019-03-30T05:24:28.579Z,47.07
2019-03-30T05:25:36.195Z,47.11
2019-03-30T05:26:42.425Z,47.15
2019-03-30T05:27:48.184Z,47.69
2019-03-30T05:28:54.754Z,47.70
2019-03-30T05:30:00.805Z,48.35
2019-03-30T05:31:07.726Z,48.33
2019-03-30T05:32:15.166Z,48.07
2019-03-30T05:33:21.470Z,48.49
2019-03-30T05:34:28.224Z,48.05
2019-03-30T05:35:34.710Z,47.95
2019-03-30T05:36:40.392Z,47.87
2019-03-30T05:37:47.662Z,48.10
2019-03-30T05:38:53.883Z,47.47
2019-03-30T05:39:59.655Z,47.60
2019-03-30T05:41:05.400Z,47.43
2019-03-30T05:42:12.138Z,47.34
2019-03-30T05:43:19.116Z,47.71
2019-03-30T05:44:25.759Z,46.91
2019-03-30T05:45:32.312Z,46.76
2019-03-30T05:46:38.049Z,46.92
2019-03-30T05:47:43.933Z,46.95
2019-03-30T05:48:50.645Z,46.83
2019-03-30T05:49:56.915Z,46.46
2019-03-30T05:51:03.550Z,46.24
2019-03-30T05:52:09.507Z,46.45
2019-03-30T05:53:15.498Z,46.50
2019-03-30T05:54:21.786Z,46.46
2019-03-30T05:55:28.662Z,47.40
2019-03-30T05:56:34.384Z,47.21
2019-03-30T05:57:41.179Z,47.38
2019-03-30T05:58:48.213Z,46.77
2019-03-30T05:59:55.991Z,46.52
2019-03-30T06:01:02.872Z,46.72
2019-03-30T06:02:09.066Z,46.45
2019-03-30T06:03:15.381Z,46.04
2019-03-30T06:04:22.332Z,45.72
2019-03-30T06:05:29.255Z,46.29
2019-03-30T06:06:35.595Z,46.58
2019-03-30T06:07:42.970Z,46.35
2019-03-30T06:08:48.424Z,47.68
2019-03-30T06:09:55.060Z,47.00
2019-03-30T06:11:00.905Z,47.40
2019-03-30T06:12:07.778Z,47.62
2019-03-30T06:13:13.976Z,46.91
2019-03-30T06:14:21.374Z,47.15
2019-03-30T06:15:27.134Z,47.17
2019-03-30T06:16:34.039Z,46.50
2019-03-30T06:17:40.392Z,46.45
2019-03-30T06:18:46.164Z,46.71
2019-03-30T06:19:53.210Z,46.95
2019-03-30T06:21:00.983Z,46.60
2019-03-30T06:22:06.744Z,47.44
2019-03-30T06:23:13.425Z,46.06
2019-03-30T06:24:19.402Z,45.73
2019-03-30T06:25:25.065Z,45.12
2019-03-30T06:26:31.538Z,44.56
2019-03-30T06:27:38.321Z,44.75
2019-03-30T06:28:44.505Z,44.89
2019-03-30T06:30:26.343Z,44.44
2019-03-30T06:31:32.495Z,44.98
2019-03-30T06:32:38.832Z,44.01
2019-03-30T06:33:44.596Z,44.35
2019-03-30T06:34:50.362Z,43.75
2019-03-30T06:35:57.155Z,43.60
2019-03-30T06:37:03.397Z,45.00
2019-03-30T06:38:09.563Z,43.86
2019-03-30T06:39:15.984Z,44.16
2019-03-30T06:40:21.736Z,43.11
2019-03-30T06:41:28.570Z,42.62
2019-03-30T06:42:35.255Z,43.10
2019-03-30T06:43:42.656Z,43.18
2019-03-30T06:44:49.255Z,43.45
2019-03-30T06:45:56.056Z,42.22
2019-03-30T06:47:02.271Z,41.81
2019-03-30T06:48:09.011Z,43.29
2019-03-30T06:49:15.461Z,44.09
2019-03-30T06:50:22.447Z,42.60
2019-03-30T06:51:29.219Z,43.26
2019-03-30T06:52:36.201Z,41.67
2019-03-30T06:53:41.955Z,41.78
2019-03-30T06:54:48.404Z,42.03
2019-03-30T06:55:54.956Z,42.45
2019-03-30T06:57:00.844Z,42.13
2019-03-30T06:58:07.000Z,41.65
2019-03-30T06:59:13.110Z,40.54
2019-03-30T07:00:20.410Z,40.29
2019-03-30T07:01:26.810Z,40.72
2019-03-30T07:02:33.331Z,40.72
2019-03-30T07:03:39.093Z,39.93
2019-03-30T07:04:46.850Z,39.71
2019-03-30T07:05:55.628Z,40.26
2019-03-30T07:07:03.350Z,39.36
2019-03-30T07:08:13.122Z,39.30
2019-03-30T07:09:22.407Z,39.34
2019-03-30T07:10:28.248Z,40.54
2019-03-30T07:11:37.362Z,38.92
2019-03-30T07:12:45.245Z,38.74
2019-03-30T07:13:53.323Z,38.50
2019-03-30T07:15:02.325Z,38.72
2019-03-30T07:16:09.428Z,38.66
2019-03-30T07:17:16.964Z,38.37
2019-03-30T07:18:22.995Z,38.24
2019-03-30T07:19:32.852Z,37.80
2019-03-30T07:20:39.591Z,37.39
2019-03-30T07:21:47.002Z,37.59
2019-03-30T07:22:53.702Z,38.58
2019-03-30T07:24:00.179Z,38.39
2019-03-30T07:25:06.320Z,38.56
2019-03-30T07:26:13.389Z,38.43
2019-03-30T07:27:20.330Z,37.63
2019-03-30T07:28:26.678Z,36.82
2019-03-30T07:29:32.633Z,37.79
2019-03-30T07:30:38.678Z,37.41
2019-03-30T07:31:45.791Z,37.99
2019-03-30T07:32:52.167Z,36.69
2019-03-30T07:33:58.927Z,36.50
2019-03-30T07:35:04.806Z,36.00
2019-03-30T07:36:10.547Z,35.38
2019-03-30T07:37:16.620Z,35.07
2019-03-30T07:38:22.524Z,35.70
2019-03-30T07:39:28.455Z,36.52
2019-03-30T07:40:35.024Z,35.15
2019-03-30T07:41:41.554Z,34.69
2019-03-30T07:42:48.736Z,34.92
2019-03-30T07:43:55.712Z,33.34
2019-03-30T07:45:02.114Z,32.45
2019-03-30T07:46:08.982Z,32.59
2019-03-30T07:47:15.369Z,34.04
2019-03-30T07:48:21.956Z,33.53
2019-03-30T07:49:28.172Z,35.11
2019-03-30T07:50:35.046Z,35.11
2019-03-30T07:51:41.342Z,33.78
2019-03-30T07:52:47.963Z,33.44
2019-03-30T07:53:55.386Z,35.19
2019-03-30T07:55:01.755Z,33.73
2019-03-30T07:56:08.967Z,26.04
2019-03-30T07:57:17.561Z,24.60
2019-03-30T07:58:23.552Z,24.60
2019-03-30T07:59:30.725Z,22.16
2019-03-30T08:00:36.719Z,20.58
2019-03-30T08:01:42.743Z,20.82
2019-03-30T08:02:49.392Z,22.11
2019-03-30T08:03:55.556Z,23.78
2019-03-30T08:05:02.939Z,23.22
2019-03-30T08:06:09.311Z,22.08
2019-03-30T08:07:15.361Z,21.53
2019-03-30T08:08:21.364Z,22.71
2019-03-30T08:09:27.851Z,21.86
2019-03-30T08:10:33.908Z,21.63
2019-03-30T08:11:39.986Z,20.83
2019-03-30T08:12:47.455Z,21.49
2019-03-30T08:13:54.828Z,21.28
2019-03-30T08:15:01.144Z,20.66
2019-03-30T08:16:07.955Z,21.77
2019-03-30T08:17:13.548Z,22.72
2019-03-30T08:18:20.082Z,22.86
2019-03-30T08:19:28.631Z,21.98
2019-03-30T08:20:34.372Z,22.61
2019-03-30T08:21:40.469Z,20.42
2019-03-30T08:22:46.728Z,20.45
2019-03-30T08:23:52.479Z,20.97
2019-03-30T08:24:58.265Z,19.93
2019-03-30T08:26:05.043Z,17.20
2019-03-30T08:27:11.164Z,17.01
2019-03-30T08:28:18.049Z,16.21
2019-03-30T08:29:26.013Z,18.77
2019-03-30T08:30:31.494Z,16.78
2019-03-30T08:31:37.269Z,15.41
2019-03-30T08:32:42.920Z,14.91
2019-03-30T08:33:48.862Z,14.90
2019-03-30T08:34:55.612Z,15.04
2019-03-30T08:36:03.001Z,14.62
2019-03-30T08:37:10.476Z,14.49
2019-03-30T08:38:17.274Z,14.58
2019-03-30T08:39:23.266Z,14.62
2019-03-30T08:40:32.380Z,13.83
2019-03-30T08:41:38.682Z,14.05
2019-03-30T08:42:45.631Z,13.10
2019-03-30T08:43:52.071Z,15.09
2019-03-30T08:44:58.746Z,13.55
2019-03-30T08:46:04.482Z,13.00
2019-03-30T08:47:10.799Z,12.67
2019-03-30T08:48:17.292Z,13.66
2019-03-30T08:49:24.809Z,13.32
2019-03-30T08:50:30.732Z,13.45
2019-03-30T08:51:36.388Z,12.88
2019-03-30T08:52:43.308Z,12.57
2019-03-30T08:53:54.761Z,14.06
2019-03-30T08:54:57.954Z,13.78
2019-03-30T08:56:04.348Z,12.68
2019-03-30T08:57:10.287Z,13.34
2019-03-30T08:58:16.725Z,13.25
2019-03-30T08:59:24.982Z,12.05
2019-03-30T09:00:49.067Z,11.22
2019-03-30T09:01:56.294Z,11.24
2019-03-30T09:03:01.878Z,11.52
2019-03-30T09:04:07.649Z,11.73
2019-03-30T09:05:14.957Z,10.99
2019-03-30T09:06:20.892Z,10.77
2019-03-30T09:07:27.405Z,10.55
2019-03-30T09:08:34.507Z,10.60
2019-03-30T09:09:41.022Z,10.47
2019-03-30T09:10:47.127Z,10.33
2019-03-30T09:11:52.951Z,11.68
2019-03-30T09:13:00.330Z,11.58
2019-03-30T09:14:06.998Z,11.12
2019-03-30T09:15:13.122Z,10.55
2019-03-30T09:16:20.128Z,10.03
2019-03-30T09:17:27.962Z,10.81
2019-03-30T09:18:35.193Z,10.29
2019-03-30T09:19:42.800Z,10.39
2019-03-30T09:20:49.133Z,10.73
2019-03-30T09:21:55.992Z,10.53
2019-03-30T09:23:02.941Z,10.71
2019-03-30T09:24:10.482Z,10.94
2019-03-30T09:25:16.271Z,11.29
2019-03-30T09:26:22.040Z,11.80
2019-03-30T09:27:28.100Z,11.92
2019-03-30T09:28:34.584Z,12.96
2019-03-30T09:29:41.110Z,13.94
2019-03-30T09:30:48.151Z,14.77
2019-03-30T09:31:54.463Z,16.17
2019-03-30T09:33:00.212Z,17.41
2019-03-30T09:34:07.853Z,16.82
2019-03-30T09:35:14.036Z,16.93
2019-03-30T09:36:20.068Z,17.75
2019-03-30T09:37:27.377Z,18.33
2019-03-30T09:38:35.228Z,18.36
2019-03-30T09:39:41.248Z,18.63
2019-03-30T09:40:48.396Z,18.25
2019-03-30T09:41:55.789Z,17.92
2019-03-30T09:43:02.602Z,17.43
2019-03-30T09:44:09.560Z,15.73
2019-03-30T09:45:15.455Z,14.38
2019-03-30T09:46:21.005Z,14.14
2019-03-30T09:47:28.301Z,13.18
2019-03-30T09:48:34.964Z,12.72
2019-03-30T09:49:42.823Z,12.58
2019-03-30T09:50:50.185Z,11.01
2019-03-30T09:51:57.066Z,10.98
2019-03-30T09:53:03.363Z,10.56
2019-03-30T09:54:22.793Z,11.67
2019-03-30T09:55:16.931Z,11.88
2019-03-30T09:56:22.646Z,12.25
2019-03-30T09:57:28.399Z,11.40
2019-03-30T09:58:34.384Z,11.24
2019-03-30T09:59:39.799Z,12.13
2019-03-30T10:00:46.096Z,13.81
2019-03-30T10:01:52.871Z,14.90
2019-03-30T10:02:58.620Z,16.67
2019-03-30T10:04:05.008Z,17.30
2019-03-30T10:05:11.493Z,18.27
2019-03-30T10:06:18.700Z,19.20
2019-03-30T10:07:24.621Z,19.29
2019-03-30T10:08:31.035Z,19.64
2019-03-30T10:09:37.904Z,19.66
2019-03-30T10:10:43.515Z,19.85
2019-03-30T10:11:51.244Z,19.97
2019-03-30T10:12:57.010Z,20.05
2019-03-30T10:14:03.968Z,19.43
2019-03-30T10:15:10.406Z,19.50
2019-03-30T10:16:17.401Z,19.91
2019-03-30T10:17:24.900Z,20.02
2019-03-30T10:18:30.914Z,19.58
2019-03-30T10:19:38.445Z,19.47
2019-03-30T10:20:44.276Z,19.50
2019-03-30T10:21:50.915Z,19.86
2019-03-30T10:22:56.321Z,20.16
2019-03-30T10:24:03.360Z,20.11
2019-03-30T10:25:09.358Z,19.97
2019-03-30T10:26:15.610Z,19.55
2019-03-30T10:27:21.991Z,19.80
2019-03-30T10:28:28.568Z,19.77
2019-03-30T10:29:35.672Z,20.33
2019-03-30T10:30:42.745Z,20.08
2019-03-30T10:31:48.794Z,20.10
2019-03-30T10:32:56.281Z,20.08
2019-03-30T10:34:02.017Z,20.10
2019-03-30T10:35:07.988Z,20.50
2019-03-30T10:36:14.602Z,20.44
2019-03-30T10:37:21.930Z,20.61
2019-03-30T10:38:28.646Z,20.20
2019-03-30T10:39:35.633Z,21.24
2019-03-30T10:40:41.785Z,20.62
2019-03-30T10:41:48.285Z,20.58
2019-03-30T10:42:55.953Z,20.37
2019-03-30T10:44:03.458Z,19.84
2019-03-30T10:45:10.085Z,19.85
2019-03-30T10:46:16.760Z,19.58
2019-03-30T10:47:22.987Z,19.49
2019-03-30T10:48:29.232Z,19.36
2019-03-30T10:49:35.564Z,19.13
2019-03-30T10:50:42.139Z,19.18
2019-03-30T10:51:48.475Z,19.32
2019-03-30T10:52:54.500Z,19.48
2019-03-30T10:54:01.525Z,19.24
2019-03-30T10:55:07.393Z,19.36
2019-03-30T10:56:13.445Z,19.03
2019-03-30T10:57:21.393Z,19.83
2019-03-30T10:58:28.159Z,19.91
2019-03-30T10:59:34.630Z,20.44
2019-03-30T11:00:41.941Z,20.11
2019-03-30T11:01:48.978Z,19.67
2019-03-30T11:02:54.715Z,20.52
2019-03-30T11:04:01.754Z,20.48
2019-03-30T11:05:07.778Z,20.14
2019-03-30T11:06:13.546Z,19.83
2019-03-30T11:07:19.812Z,20.07
2019-03-30T11:08:26.626Z,20.17
2019-03-30T11:09:32.403Z,19.77
2019-03-30T11:10:38.696Z,19.81
2019-03-30T11:11:46.004Z,19.66
2019-03-30T11:12:52.517Z,19.50
2019-03-30T11:13:58.667Z,19.88
2019-03-30T11:15:04.699Z,19.50
2019-03-30T11:16:11.985Z,19.43
2019-03-30T11:17:19.511Z,19.17
2019-03-30T11:18:25.325Z,18.95
2019-03-30T11:19:31.074Z,19.12
2019-03-30T11:20:38.265Z,19.22
2019-03-30T11:21:45.479Z,19.44
2019-03-30T11:22:51.550Z,18.92
2019-03-30T11:23:58.998Z,19.10
2019-03-30T11:25:08.518Z,19.01
2019-03-30T11:26:14.227Z,19.18
2019-03-30T11:27:20.243Z,19.32
2019-03-30T11:28:27.554Z,19.19
2019-03-30T11:29:34.513Z,19.22
2019-03-30T11:30:41.145Z,19.74
2019-03-30T11:31:47.181Z,19.75
2019-03-30T11:32:53.556Z,19.49
2019-03-30T11:34:00.924Z,19.94
2019-03-30T11:35:06.905Z,19.56
2019-03-30T11:36:14.427Z,19.43
2019-03-30T11:37:20.626Z,18.95
2019-03-30T11:38:26.627Z,19.35
2019-03-30T11:39:33.244Z,19.05
2019-03-30T11:40:39.651Z,19.28
2019-03-30T11:41:46.752Z,19.45
2019-03-30T11:42:52.540Z,19.00
2019-03-30T11:43:59.714Z,18.96
2019-03-30T11:45:05.611Z,18.83
2019-03-30T11:46:11.356Z,18.59
2019-03-30T11:47:17.474Z,18.33
2019-03-30T11:48:26.720Z,17.88
2019-03-30T11:49:34.469Z,15.35
2019-03-30T11:50:41.292Z,12.99
2019-03-30T11:51:47.722Z,11.06
2019-03-30T11:52:54.631Z,10.24
2019-03-30T11:54:00.638Z,9.96
2019-03-30T11:55:20.636Z,9.21
2019-03-30T11:56:14.789Z,8.83
2019-03-30T11:57:22.172Z,8.61
2019-03-30T11:58:28.568Z,8.34
2019-03-30T11:59:35.092Z,8.39
2019-03-30T12:00:42.143Z,8.75
2019-03-30T12:01:49.101Z,8.00
2019-03-30T12:02:55.288Z,7.64
2019-03-30T12:04:03.519Z,7.58
2019-03-30T12:05:09.411Z,7.93
2019-03-30T12:06:15.204Z,8.88
2019-03-30T12:07:22.033Z,9.22
2019-03-30T12:08:28.693Z,9.19
2019-03-30T12:09:35.244Z,8.41
2019-03-30T12:10:41.462Z,9.16
2019-03-30T12:11:47.700Z,9.50
2019-03-30T12:12:53.698Z,9.09
2019-03-30T12:14:00.714Z,9.30
2019-03-30T12:15:06.907Z,9.28
2019-03-30T12:16:13.433Z,8.74
2019-03-30T12:17:20.497Z,8.24
2019-03-30T12:18:27.429Z,8.63
2019-03-30T12:19:34.056Z,8.92
2019-03-30T12:20:40.116Z,9.10
2019-03-30T12:21:46.637Z,8.39
2019-03-30T12:22:53.458Z,8.18
2019-03-30T12:23:59.529Z,7.95
2019-03-30T12:25:06.814Z,8.17
2019-03-30T12:26:12.563Z,7.92
2019-03-30T12:27:18.852Z,8.70
2019-03-30T12:28:25.600Z,8.66
2019-03-30T12:29:31.718Z,9.00
2019-03-30T12:30:38.116Z,8.38
2019-03-30T12:31:44.606Z,8.13
2019-03-30T12:32:50.417Z,8.38
2019-03-30T12:33:56.829Z,8.16
2019-03-30T12:35:03.342Z,8.36
2019-03-30T12:36:10.248Z,8.92
2019-03-30T12:37:17.638Z,10.20
2019-03-30T12:38:24.609Z,11.96
2019-03-30T12:39:30.616Z,13.47
2019-03-30T12:40:37.553Z,15.79
2019-03-30T12:41:44.993Z,15.95
2019-03-30T12:42:50.695Z,16.64
2019-03-30T12:43:57.326Z,15.79
2019-03-30T12:45:03.871Z,15.96
2019-03-30T12:46:10.465Z,16.48
2019-03-30T12:47:17.070Z,16.24
2019-03-30T12:48:26.948Z,16.31
2019-03-30T12:49:34.018Z,16.30
2019-03-30T12:50:40.398Z,16.73
2019-03-30T12:51:47.221Z,16.94
2019-03-30T12:52:54.705Z,17.06
2019-03-30T12:54:01.183Z,17.08
2019-03-30T12:55:07.090Z,16.92
2019-03-30T12:56:14.332Z,17.57
2019-03-30T12:57:19.993Z,17.60
2019-03-30T12:58:27.745Z,17.39
2019-03-30T12:59:35.298Z,17.89
2019-03-30T13:00:42.382Z,17.86
2019-03-30T13:01:48.762Z,18.16
2019-03-30T13:02:56.204Z,18.80
2019-03-30T13:04:02.760Z,18.37
2019-03-30T13:05:09.094Z,18.34
2019-03-30T13:06:15.247Z,18.08
2019-03-30T13:07:21.480Z,17.70
2019-03-30T13:08:27.691Z,18.89
2019-03-30T13:09:35.159Z,19.00
2019-03-30T13:10:45.226Z,18.76
2019-03-30T13:11:49.417Z,18.28
2019-03-30T13:12:56.945Z,18.07
2019-03-30T13:14:03.003Z,18.48
2019-03-30T13:15:10.206Z,18.64
2019-03-30T13:16:16.827Z,18.73
2019-03-30T13:17:23.425Z,19.19
2019-03-30T13:18:30.910Z,18.71
2019-03-30T13:19:37.198Z,19.48
2019-03-30T13:20:43.522Z,18.95
2019-03-30T13:21:52.904Z,19.00
2019-03-30T13:22:57.953Z,19.17
2019-03-30T13:24:05.691Z,19.38
2019-03-30T13:25:11.415Z,18.96
2019-03-30T13:26:16.828Z,18.65
2019-03-30T13:27:23.072Z,19.00
2019-03-30T13:28:29.411Z,19.63
2019-03-30T13:29:36.029Z,18.86
2019-03-30T13:30:42.372Z,19.16
2019-03-30T13:31:49.187Z,19.25
2019-03-30T13:32:55.730Z,19.17
2019-03-30T13:34:02.603Z,19.76
2019-03-30T13:35:08.863Z,20.47
2019-03-30T13:36:15.481Z,20.85
2019-03-30T13:37:23.195Z,20.50
2019-03-30T13:38:30.015Z,19.82
2019-03-30T13:39:37.556Z,19.77
2019-03-30T13:40:44.070Z,20.06
2019-03-30T13:41:50.715Z,19.54
2019-03-30T13:42:58.422Z,20.19
2019-03-30T13:44:07.233Z,19.29
2019-03-30T13:45:14.124Z,19.40
2019-03-30T13:46:19.670Z,19.84
2019-03-30T13:47:26.659Z,19.64
2019-03-30T13:48:33.172Z,19.78
2019-03-30T13:49:39.240Z,20.40
2019-03-30T13:50:46.066Z,19.83
2019-03-30T13:51:53.711Z,19.97
2019-03-30T13:52:59.682Z,20.34
2019-03-30T13:54:05.493Z,20.52
2019-03-30T13:55:11.635Z,20.59
2019-03-30T13:56:17.778Z,21.04
2019-03-30T13:57:24.407Z,20.87
2019-03-30T13:58:32.005Z,20.66
2019-03-30T13:59:38.033Z,20.51
2019-03-30T14:00:44.868Z,20.73
2019-03-30T14:01:51.766Z,20.91
2019-03-30T14:02:58.725Z,20.87
2019-03-30T14:04:05.325Z,20.97
2019-03-30T14:05:11.153Z,21.26
2019-03-30T14:06:17.446Z,21.46
2019-03-30T14:07:23.125Z,21.22
2019-03-30T14:08:29.134Z,20.61
2019-03-30T14:09:35.684Z,20.57
2019-03-30T14:10:41.655Z,20.55
2019-03-30T14:11:47.448Z,20.70
2019-03-30T14:12:54.097Z,20.63
2019-03-30T14:14:00.258Z,21.08
2019-03-30T14:15:09.204Z,20.68
2019-03-30T14:16:13.829Z,20.34
2019-03-30T14:17:20.225Z,20.42
2019-03-30T14:18:27.271Z,21.30
2019-03-30T14:19:33.580Z,21.05
2019-03-30T14:20:40.268Z,21.43